Time,TemperatureF,DewpointF,PressureIn,WindDirection,WindDirectionDegrees,WindSpeedMPH,WindSpeedGustMPH,Humidity,HourlyPrecipIn,Conditions,Clouds,dailyrainin,SoftwareType,DateUTC
2013-08-26 00:14:00,67.0,56.0,30.20,SW,229,0.0,0.0,67,0.00,,,0.00,,2013-08-26 04:14:00,
2013-08-26 00:53:00,67.0,57.0,30.20,SW,229,0.0,0.0,70,0.00,,,0.00,,2013-08-26 04:53:00,
2013-08-26 01:13:00,67.0,57.0,30.20,SW,229,0.0,0.0,70,0.00,,,0.00,,2013-08-26 05:13:00,
2013-08-26 01:23:00,67.0,57.0,30.20,SW,236,0.0,2.0,70,0.00,,,0.00,,2013-08-26 05:23:00,
2013-08-26 01:43:00,67.0,56.0,30.19,WSW,250,0.0,1.0,69,0.00,,,0.00,,2013-08-26 05:43:00,
2013-08-26 01:52:00,67.0,56.0,30.19,SSW,192,0.0,3.0,69,0.00,,,0.00,,2013-08-26 05:52:00,
2013-08-26 02:12:00,67.0,56.0,30.19,SW,224,0.0,0.0,69,0.00,,,0.00,,2013-08-26 06:12:00,
2013-08-26 02:22:00,67.0,56.0,30.20,SW,224,0.0,0.0,69,0.00,,,0.00,,2013-08-26 06:22:00,
2013-08-26 02:42:00,67.0,57.0,30.19,SW,224,0.0,0.0,71,0.00,,,0.00,,2013-08-26 06:42:00,
2013-08-26 02:52:00,67.0,57.0,30.18,SW,224,0.0,0.0,70,0.00,,,0.00,,2013-08-26 06:52:00,
2013-08-26 03:22:00,67.0,56.0,30.17,SSW,202,0.0,2.0,69,0.00,,,0.00,,2013-08-26 07:22:00,
2013-08-26 03:52:00,66.0,56.0,30.16,SSW,205,0.0,3.0,70,0.00,,,0.00,,2013-08-26 07:52:00,
2013-08-26 04:12:00,66.0,56.0,30.15,South,188,1.0,5.0,71,0.00,,,0.00,,2013-08-26 08:12:00,
2013-08-26 04:22:00,66.0,56.0,30.15,SW,221,0.0,2.0,71,0.00,,,0.00,,2013-08-26 08:22:00,
2013-08-26 04:52:00,66.0,56.0,30.15,NW,305,0.0,1.0,71,0.00,,,0.00,,2013-08-26 08:52:00,
2013-08-26 05:11:00,66.0,56.0,30.15,SSE,150,0.0,0.0,70,0.00,,,0.00,,2013-08-26 09:11:00,
2013-08-26 05:22:00,66.0,56.0,30.15,WSW,255,0.0,1.0,69,0.00,,,0.00,,2013-08-26 09:22:00,
2013-08-26 05:53:00,66.0,56.0,30.15,SSW,205,0.0,1.0,70,0.00,,,0.00,,2013-08-26 09:53:00,
2013-08-26 06:12:00,66.0,56.0,30.14,West,267,0.0,3.0,71,0.00,,,0.00,,2013-08-26 10:12:00,
2013-08-26 06:23:00,66.0,56.0,30.14,SW,219,0.0,2.0,71,0.00,,,0.00,,2013-08-26 10:23:00,
2013-08-26 06:52:00,66.0,57.0,30.14,SSW,207,0.0,1.0,72,0.00,,,0.00,,2013-08-26 10:52:00,
2013-08-26 07:12:00,66.0,57.0,30.14,SSW,207,0.0,0.0,73,0.00,,,0.00,,2013-08-26 11:12:00,
2013-08-26 07:22:00,66.0,57.0,30.14,SSW,207,0.0,0.0,73,0.00,,,0.00,,2013-08-26 11:22:00,
2013-08-26 07:52:00,66.0,57.0,30.13,SSW,207,0.0,1.0,74,0.00,,,0.00,,2013-08-26 11:52:00,
2013-08-26 08:12:00,66.0,58.0,30.14,SSW,213,0.0,2.0,75,0.00,,,0.00,,2013-08-26 12:12:00,
2013-08-26 08:22:00,66.0,58.0,30.13,SW,228,0.0,0.0,75,0.00,,,0.00,,2013-08-26 12:22:00,
2013-08-26 08:52:00,67.0,58.0,30.12,SW,228,0.0,0.0,74,0.00,,,0.00,,2013-08-26 12:52:00,
2013-08-26 09:12:00,67.0,58.0,30.12,SSW,205,0.0,0.0,74,0.00,,,0.00,,2013-08-26 13:12:00,
2013-08-26 09:21:00,67.0,58.0,30.12,SSW,205,0.0,0.0,74,0.00,,,0.00,,2013-08-26 13:21:00,
2013-08-26 09:52:00,67.0,59.0,30.11,WSW,241,0.0,2.0,76,0.00,,,0.00,,2013-08-26 13:52:00,
2013-08-26 10:22:00,70.0,59.0,30.11,SW,216,1.0,4.0,69,0.00,,,0.00,,2013-08-26 14:22:00,
2013-08-26 10:42:00,69.0,60.0,30.11,WSW,247,1.0,5.0,73,0.00,,,0.00,,2013-08-26 14:42:00,
2013-08-26 10:52:00,70.0,60.0,30.10,SSW,211,1.0,5.0,71,0.00,,,0.00,,2013-08-26 14:52:00,
2013-08-26 11:12:00,72.0,61.0,30.09,SSE,166,0.0,5.0,68,0.00,,,0.00,,2013-08-26 15:12:00,
2013-08-26 11:22:00,72.0,61.0,30.09,SSW,206,1.0,5.0,68,0.00,,,0.00,,2013-08-26 15:22:00,
2013-08-26 11:47:00,73.0,62.0,30.08,SSW,212,0.0,4.0,69,0.00,,,0.00,,2013-08-26 15:47:00,
2013-08-26 11:59:00,72.0,61.0,30.08,SSW,210,0.0,5.0,69,0.00,,,0.00,,2013-08-26 15:59:00,
2013-08-26 12:29:00,72.0,62.0,30.07,SSW,207,0.0,1.0,72,0.00,,,0.00,,2013-08-26 16:29:00,
2013-08-26 12:59:00,72.0,63.0,30.06,SSW,209,0.0,0.0,73,0.00,,,0.00,,2013-08-26 16:59:00,
2013-08-26 13:24:00,72.0,65.0,30.05,SW,233,1.0,3.0,78,0.00,,,0.00,,2013-08-26 17:24:00,
2013-08-26 13:53:00,72.0,64.0,30.04,WSW,242,0.0,0.0,77,0.00,,,0.00,,2013-08-26 17:53:00,
2013-08-26 14:12:00,72.0,64.0,30.03,WSW,242,0.0,1.0,77,0.00,,,0.00,,2013-08-26 18:12:00,
2013-08-26 14:22:00,72.0,65.0,30.02,WSW,242,0.0,2.0,80,0.00,,,0.00,,2013-08-26 18:22:00,
2013-08-26 14:52:00,72.0,66.0,30.00,WSW,242,0.0,0.0,81,0.00,,,0.00,,2013-08-26 18:52:00,
2013-08-26 15:11:00,72.0,65.0,30.00,WSW,242,0.0,4.0,80,0.00,,,0.00,,2013-08-26 19:11:00,
2013-08-26 15:22:00,72.0,65.0,29.99,WSW,241,0.0,1.0,80,0.00,,,0.00,,2013-08-26 19:22:00,
2013-08-26 15:52:00,74.0,66.0,29.98,SSW,199,0.0,4.0,75,0.00,,,0.00,,2013-08-26 19:52:00,
2013-08-26 16:11:00,74.0,65.0,29.97,SW,235,0.0,3.0,74,0.00,,,0.00,,2013-08-26 20:11:00,
2013-08-26 16:22:00,74.0,66.0,29.97,SSW,207,0.0,3.0,75,0.00,,,0.00,,2013-08-26 20:22:00,
2013-08-26 16:43:00,74.0,65.0,29.96,NW,305,0.0,3.0,74,0.00,,,0.00,,2013-08-26 20:43:00,
2013-08-26 16:52:00,74.0,65.0,29.96,SSW,192,0.0,3.0,74,0.00,,,0.00,,2013-08-26 20:52:00,
2013-08-26 17:22:00,75.0,66.0,29.96,SSW,209,0.0,0.0,74,0.00,,,0.00,,2013-08-26 21:22:00,
2013-08-26 17:55:00,74.0,66.0,29.96,SSW,209,0.0,0.0,76,0.00,,,0.00,,2013-08-26 21:55:00,
2013-08-26 18:16:00,74.0,66.0,29.96,SSW,209,0.0,0.0,77,0.00,,,0.00,,2013-08-26 22:16:00,
2013-08-26 18:26:00,74.0,67.0,29.94,SSW,209,0.0,0.0,78,0.00,,,0.00,,2013-08-26 22:26:00,
2013-08-26 18:53:00,73.0,66.0,29.94,SSW,209,0.0,0.0,80,0.00,,,0.00,,2013-08-26 22:53:00,
2013-08-26 19:22:00,73.0,67.0,29.94,SSW,209,0.0,0.0,81,0.00,,,0.00,,2013-08-26 23:22:00,
2013-08-26 19:52:00,72.0,66.0,29.94,SSW,209,0.0,0.0,82,0.00,,,0.00,,2013-08-26 23:52:00,
2013-08-26 20:00:00,72.0,66.0,29.93,SSW,209,0.0,0.0,82,0.00,,,0.00,,2013-08-27 00:00:00,
2013-08-26 20:21:00,72.0,66.0,29.93,SSW,209,0.0,0.0,82,0.00,,,0.00,,2013-08-27 00:21:00,
2013-08-26 20:32:00,72.0,66.0,29.93,SSW,209,0.0,0.0,82,0.00,,,0.00,,2013-08-27 00:32:00,
2013-08-26 20:52:00,72.0,66.0,29.93,SSW,209,0.0,0.0,82,0.00,,,0.00,,2013-08-27 00:52:00,
2013-08-26 22:52:00,70.0,66.0,29.93,SSW,206,0.0,0.0,88,0.02,,,0.44,,2013-08-27 02:52:00,
2013-08-26 23:23:00,70.0,66.0,29.92,SSW,207,0.0,0.0,88,0.04,,,0.46,,2013-08-27 03:23:00,
2013-08-26 23:44:00,70.0,67.0,29.91,SSW,206,0.0,0.0,89,0.02,,,0.48,,2013-08-27 03:44:00,
2013-08-26 23:58:00,70.0,67.0,29.91,SW,217,0.0,2.0,89,0.02,,,0.48,,2013-08-27 03:58:00,